Time;durP1;ratioP1;P1;durP2;ratioP2;P2;SDS_P1;SDS_P2;PMS_P1;PMS_P2;Temp;Humidity;BMP_temperature;BMP_pressure;BME280_temperature;BME280_humidity;BME280_pressure;Samples;Min_cycle;Max_cycle;Signal;HPM_P1;HPM_P2
2021/04/04 00:00:36;;;;;;;;;150.75;128.00;;;;;5.30;74.76;101074.16;5156564;27;8833;-73
2021/04/04 00:03:32;;;;;;;;;155.50;124.00;;;;;5.20;74.77;101079.72;5155204;27;8844;-73
2021/04/04 00:06:28;;;;;;;;;149.50;126.00;;;;;5.35;74.65;101087.00;5156317;27;8821;-73
2021/04/04 00:09:23;;;;;;;;;162.50;137.75;;;;;5.44;74.53;101077.03;5147676;27;8823;-73
2021/04/04 00:12:01;;;;;;;;;133.00;114.75;;;;;5.43;74.85;101077.34;5134010;27;8918;-73
2021/04/04 00:14:57;;;;;;;;;141.75;131.25;;;;;5.41;75.18;101074.06;5140062;27;9615;-72
2021/04/04 00:17:53;;;;;;;;;152.25;133.00;;;;;5.39;75.34;101077.13;5155535;27;8849;-72
2021/04/04 00:20:48;;;;;;;;;148.75;124.50;;;;;5.37;75.46;101073.84;5137755;27;8835;-72
2021/04/04 00:23:44;;;;;;;;;216.25;165.50;;;;;5.45;76.02;101072.41;5139272;27;8827;-72
2021/04/04 00:26:40;;;;;;;;;245.50;182.50;;;;;5.65;75.74;101068.66;5139478;27;8938;-72
2021/04/04 00:29:35;;;;;;;;;260.50;201.50;;;;;5.62;75.46;101074.72;5137346;27;8923;-72
2021/04/04 00:32:31;;;;;;;;;270.25;208.25;;;;;5.71;75.14;101070.25;5156822;27;8829;-72
2021/04/04 00:35:27;;;;;;;;;312.75;225.00;;;;;5.76;75.10;101073.78;5156408;27;8828;-71
2021/04/04 00:38:09;;;;;;;;;314.50;249.50;;;;;5.72;75.13;101075.44;5140327;27;9582;-72
2021/04/04 00:41:05;;;;;;;;;348.25;239.50;;;;;5.72;75.20;101083.69;5157495;27;8837;-72
2021/04/04 00:44:02;;;;;;;;;377.00;275.25;;;;;5.74;75.34;101077.88;5160537;27;8903;-72
2021/04/04 00:46:57;;;;;;;;;400.25;291.00;;;;;5.77;74.99;101069.09;5157367;27;8828;-72
2021/04/04 00:49:54;;;;;;;;;399.50;279.50;;;;;5.84;75.05;101066.84;5145483;27;8876;-73
2021/04/04 00:52:51;;;;;;;;;409.50;312.50;;;;;5.87;75.08;101074.47;5144246;27;8863;-73
2021/04/04 00:55:47;;;;;;;;;439.25;338.50;;;;;5.90;74.83;101070.31;5157626;27;8832;-73
2021/04/04 00:58:15;;;;;;;;;478.25;347.75;;;;;6.03;74.66;101069.66;5157775;27;8864;-73
2021/04/04 01:01:11;;;;;;;;;476.25;318.00;;;;;6.05;74.51;101076.50;5144967;27;8812;-73
2021/04/04 01:04:07;;;;;;;;;418.00;308.00;;;;;5.92;74.68;101070.91;5158374;27;8873;-73
2021/04/04 01:07:02;;;;;;;;;401.50;285.00;;;;;5.87;74.94;101071.72;5157519;27;8848;-72
2021/04/04 01:09:58;;;;;;;;;380.25;263.75;;;;;5.88;75.07;101067.88;5156903;27;8836;-73
2021/04/04 01:13:06;;;;;;;;;362.75;242.75;;;;;5.91;74.98;101070.09;5145215;27;8815;-73
2021/04/04 01:15:37;;;;;;;;;395.50;297.50;;;;;6.13;74.71;101062.16;5137991;27;8858;-73
2021/04/04 01:18:38;;;;;;;;;413.50;305.00;;;;;6.08;74.47;101066.88;5139081;27;8826;-73
2021/04/04 01:21:53;;;;;;;;;375.00;252.25;;;;;6.06;74.48;101071.84;5121740;27;8834;-73
2021/04/04 01:25:08;;;;;;;;;373.75;262.25;;;;;6.02;74.61;101051.56;5135810;27;8811;-73
2021/04/04 01:28:18;;;;;;;;;457.00;308.75;;;;;6.06;74.49;101058.13;5125233;27;8934;-73
2021/04/04 01:30:50;;;;;;;;;617.25;422.25;;;;;6.16;74.22;101068.16;5137843;27;8862;-73
2021/04/04 01:33:49;;;;;;;;;489.50;354.25;;;;;6.15;74.68;101058.28;5136686;27;8839;-73
2021/04/04 01:36:47;;;;;;;;;460.25;328.75;;;;;6.15;74.72;101053.63;5136340;27;8816;-73
2021/04/04 01:39:53;;;;;;;;;370.25;274.25;;;;;6.22;74.74;101053.28;5136260;27;8923;-73
2021/04/04 01:42:51;;;;;;;;;273.75;214.50;;;;;6.12;74.53;101051.44;5143628;27;8824;-73
2021/04/04 01:45:50;;;;;;;;;229.25;193.50;;;;;6.15;74.33;101067.34;5151941;27;8837;-73
2021/04/04 01:48:47;;;;;;;;;261.00;195.75;;;;;5.99;74.84;101068.63;5147856;27;8850;-73
2021/04/04 01:51:46;;;;;;;;;264.75;200.00;;;;;5.98;74.76;101062.31;5135820;27;8839;-73
2021/04/04 01:54:43;;;;;;;;;274.75;201.50;;;;;6.01;74.73;101063.66;5136439;27;8886;-73
2021/04/04 01:57:40;;;;;;;;;271.25;211.00;;;;;6.09;74.48;101076.75;5138838;27;8916;-73
2021/04/04 02:00:39;;;;;;;;;334.50;227.75;;;;;6.06;74.44;101078.16;5144884;27;8824;-73
2021/04/04 02:03:35;;;;;;;;;370.25;263.50;;;;;5.98;74.77;101075.22;5157157;27;9611;-73
2021/04/04 02:06:33;;;;;;;;;344.50;233.25;;;;;5.89;74.83;101080.47;5138851;27;8820;-73
2021/04/04 02:09:20;;;;;;;;;368.50;268.00;;;;;6.01;74.78;101085.63;5135819;27;8867;-72
2021/04/04 02:11:50;;;;;;;;;297.50;218.50;;;;;6.07;74.45;101093.53;5136168;27;8835;-72
2021/04/04 02:14:21;;;;;;;;;314.75;232.75;;;;;6.10;74.48;101092.13;5137555;27;8839;-72
2021/04/04 02:17:17;;;;;;;;;291.00;207.75;;;;;6.05;74.57;101092.97;5135474;27;8839;-72
2021/04/04 02:20:19;;;;;;;;;253.00;176.00;;;;;6.03;74.69;101080.66;5135629;27;8846;-72
2021/04/04 02:22:50;;;;;;;;;282.25;205.75;;;;;6.14;74.71;101071.22;5136883;27;8835;-73
2021/04/04 02:25:47;;;;;;;;;286.75;202.00;;;;;6.09;74.75;101071.25;5138823;27;8898;-72
2021/04/04 02:28:42;;;;;;;;;234.25;175.25;;;;;6.10;74.87;101073.72;5145259;27;8862;-72
2021/04/04 02:31:43;;;;;;;;;223.25;171.50;;;;;6.08;74.90;101073.19;5134826;27;8850;-73
2021/04/04 02:34:42;;;;;;;;;241.75;186.25;;;;;6.12;74.94;101082.47;5135396;27;9580;-73
2021/04/04 02:37:34;;;;;;;;;230.25;169.25;;;;;6.24;74.90;101084.00;5116473;27;8843;-72
2021/04/04 02:40:32;;;;;;;;;242.50;193.50;;;;;6.26;74.60;101088.09;5134903;27;8839;-72
2021/04/04 02:43:32;;;;;;;;;186.50;141.25;;;;;6.29;74.65;101089.44;5135081;27;8824;-73
2021/04/04 02:46:29;;;;;;;;;191.50;150.25;;;;;6.32;74.54;101084.19;5135196;27;8863;-73
2021/04/04 02:49:29;;;;;;;;;185.75;154.25;;;;;6.30;74.63;101091.09;5134463;27;8839;-72
2021/04/04 02:52:28;;;;;;;;;239.00;183.75;;;;;6.27;74.23;101092.47;5134976;27;8831;-72
2021/04/04 02:55:25;;;;;;;;;239.50;190.75;;;;;6.34;73.88;101101.19;5134918;27;8843;-72
2021/04/04 02:58:04;;;;;;;;;262.50;201.75;;;;;6.28;74.67;101109.75;5153953;27;8829;-72
2021/04/04 03:00:35;;;;;;;;;210.50;170.00;;;;;6.24;74.66;101108.72;5156026;27;8848;-73
2021/04/04 03:03:06;;;;;;;;;197.50;152.25;;;;;6.26;74.55;101106.50;5155826;27;8853;-72
2021/04/04 03:06:06;;;;;;;;;174.25;131.50;;;;;6.41;74.49;101123.63;5153191;27;8951;-72
2021/04/04 03:09:03;;;;;;;;;156.75;126.50;;;;;6.29;74.51;101117.72;5134978;27;8824;-73
2021/04/04 03:12:01;;;;;;;;;137.00;110.25;;;;;6.29;74.63;101128.72;5138153;27;8830;-72
2021/04/04 03:14:58;;;;;;;;;159.00;129.50;;;;;6.24;74.96;101125.22;5120956;27;8831;-73
2021/04/04 03:17:56;;;;;;;;;124.00;106.50;;;;;6.45;74.04;101134.03;5137216;27;8819;-72
2021/04/04 03:20:53;;;;;;;;;118.33;96.33;;;;;6.36;74.20;101131.09;5134683;27;8860;-73
2021/04/04 03:23:51;;;;;;;;;60.33;49.33;;;;;6.37;74.18;101132.75;5153627;27;8917;-73
2021/04/04 03:26:47;;;;;;;;;93.33;72.33;;;;;6.19;74.57;101137.06;5139220;27;9588;-73
2021/04/04 03:29:44;;;;;;;;;83.33;66.00;;;;;6.22;74.59;101154.91;5135053;27;8862;-72
2021/04/04 03:32:42;;;;;;;;;82.00;63.00;;;;;6.20;74.72;101141.44;5143003;27;8985;-72
2021/04/04 03:35:11;;;;;;;;;67.67;55.67;;;;;6.11;75.29;101138.50;5154402;27;8863;-72
2021/04/04 03:37:45;;;;;;;;;82.67;65.33;;;;;6.06;75.54;101146.81;5140127;27;8955;-72
2021/04/04 03:40:45;;;;;;;;;73.67;60.33;;;;;6.05;75.61;101156.13;5143864;27;9027;-72
2021/04/04 03:43:45;;;;;;;;;81.00;64.33;;;;;6.16;75.59;101150.56;5141690;27;8819;-72
2021/04/04 03:46:41;;;;;;;;;78.67;64.33;;;;;6.23;75.94;101149.09;5130638;27;8840;-72
2021/04/04 03:49:39;;;;;;;;;83.67;65.67;;;;;6.11;77.13;101148.66;5143337;27;8935;-72
2021/04/04 03:52:36;;;;;;;;;86.00;68.33;;;;;6.28;77.07;101137.22;5143336;27;8853;-73
2021/04/04 03:55:10;;;;;;;;;73.00;60.33;;;;;6.25;77.84;101141.38;5145000;27;8871;-74
2021/04/04 03:58:06;;;;;;;;;86.33;66.67;;;;;6.37;77.77;101141.00;5127261;27;8855;-72
2021/04/04 04:01:05;;;;;;;;;78.00;63.33;;;;;6.43;79.13;101147.22;5135899;27;8861;-69
2021/04/04 04:04:05;;;;;;;;;81.00;64.67;;;;;6.46;78.54;101149.41;5142119;27;8841;-72
2021/04/04 04:07:04;;;;;;;;;84.00;66.00;;;;;6.40;78.87;101156.88;5143222;27;8815;-73
2021/04/04 04:10:02;;;;;;;;;81.33;64.00;;;;;6.53;78.56;101155.38;5144748;27;8916;-73
2021/04/04 04:12:32;;;;;;;;;76.33;62.67;;;;;6.61;78.01;101155.56;5108817;27;8924;-72
2021/04/04 04:15:29;;;;;;;;;76.00;63.33;;;;;6.41;79.75;101158.53;5141229;27;8823;-73
2021/04/04 04:18:25;;;;;;;;;81.67;64.00;;;;;6.71;78.77;101153.78;5142873;27;8839;-73
2021/04/04 04:21:21;;;;;;;;;80.00;63.67;;;;;6.72;78.39;101155.41;5128555;27;8819;-73
2021/04/04 04:24:19;;;;;;;;;77.67;62.00;;;;;6.90;77.91;101166.47;5143095;27;8805;-72
2021/04/04 04:27:18;;;;;;;;;79.67;63.67;;;;;6.61;79.18;101157.47;5141035;27;8829;-72
2021/04/04 04:30:15;;;;;;;;;80.67;65.67;;;;;6.77;78.96;101167.19;5128043;27;8906;-74
2021/04/04 04:33:15;;;;;;;;;81.00;65.33;;;;;6.88;78.93;101157.69;5149844;27;8973;-73
2021/04/04 04:35:45;;;;;;;;;81.67;63.00;;;;;6.93;79.07;101160.38;5136839;27;8855;-74
2021/04/04 04:38:42;;;;;;;;;76.67;63.00;;;;;6.98;78.95;101167.75;5144322;27;8902;-73
2021/04/04 04:41:42;;;;;;;;;77.00;60.67;;;;;6.87;78.79;101166.22;5132719;27;8811;-73
2021/04/04 04:44:42;;;;;;;;;81.00;60.00;;;;;6.92;79.15;101169.75;5151760;27;8825;-73
2021/04/04 04:47:12;;;;;;;;;34.67;25.33;;;;;7.07;79.12;101176.16;5136070;27;8833;-73
2021/04/04 04:50:09;;;;;;;;;85.33;68.67;;;;;7.06;79.27;101178.09;5154093;27;8814;-73
2021/04/04 04:53:04;;;;;;;;;74.67;61.00;;;;;7.20;78.94;101181.72;5141173;27;8950;-73
2021/04/04 04:56:03;;;;;;;;;81.33;64.67;;;;;7.24;78.91;101182.78;5133939;27;8847;-73
2021/04/04 04:58:35;;;;;;;;;81.00;64.67;;;;;7.32;78.50;101186.81;5150644;27;8821;-74
2021/04/04 05:01:09;;;;;;;;;77.33;63.67;;;;;7.29;78.35;101181.09;5132586;27;8858;-74
2021/04/04 05:03:37;;;;;;;;;83.00;63.00;;;;;7.40;77.54;101185.31;5149158;27;8833;-73
2021/04/04 05:06:34;;;;;;;;;78.67;62.33;;;;;7.25;78.02;101180.84;5130058;27;9230;-74
2021/04/04 05:09:08;;;;;;;;;76.00;62.33;;;;;7.47;78.17;101191.28;5147720;27;8848;-74
2021/04/04 05:11:40;;;;;;;;;74.67;59.67;;;;;7.39;78.33;101194.69;5136719;27;8850;-73
2021/04/04 05:14:37;;;;;;;;;73.67;61.00;;;;;7.43;78.31;101190.22;5137056;27;11527;-74
2021/04/04 05:17:34;;;;;;;;;79.33;63.00;;;;;7.58;78.68;101209.25;5135035;27;9066;-73
2021/04/04 05:20:30;;;;;;;;;87.00;67.33;;;;;7.69;77.63;101191.47;5135495;27;8907;-74
2021/04/04 05:23:26;;;;;;;;;92.00;74.67;;;;;7.72;76.94;101198.31;5136277;27;8819;-73
2021/04/04 05:26:28;;;;;;;;;98.67;85.67;;;;;7.70;77.35;101203.31;5148184;27;8851;-74
2021/04/04 05:29:12;;;;;;;;;108.00;86.33;;;;;7.83;76.77;101199.00;5137460;27;9603;-73
2021/04/04 05:31:52;;;;;;;;;119.33;94.33;;;;;7.85;76.56;101207.75;5138168;27;8843;-74
2021/04/04 05:34:48;;;;;;;;;102.00;92.00;;;;;7.96;76.98;101204.53;5139785;27;8840;-73
2021/04/04 05:37:46;;;;;;;;;125.00;95.67;;;;;8.03;77.08;101210.47;5135521;27;8799;-74
2021/04/04 05:40:44;;;;;;;;;99.67;81.67;;;;;7.97;77.05;101208.91;5135109;27;8858;-73
2021/04/04 05:43:25;;;;;;;;;112.67;92.33;;;;;7.99;76.57;101208.63;5152931;27;9538;-73
2021/04/04 05:46:01;;;;;;;;;94.67;79.00;;;;;8.02;76.80;101202.50;5129383;27;9195;-73
2021/04/04 05:48:39;;;;;;;;;102.33;86.33;;;;;8.19;76.55;101201.94;5118286;27;8917;-73
2021/04/04 05:51:17;;;;;;;;;92.67;74.67;;;;;8.12;76.70;101204.28;5151904;27;8821;-73
2021/04/04 05:53:47;;;;;;;;;73.25;57.25;;;;;8.09;76.11;101201.00;5147852;27;8867;-73
2021/04/04 05:56:24;;;;;;;;;58.50;49.50;;;;;8.28;75.41;101200.13;5141406;27;12325;-73
2021/04/04 05:59:08;;;;;;;;;54.50;43.00;;;;;8.09;75.00;101201.00;5144340;27;11514;-73
2021/04/04 06:01:47;;;;;;;;;37.25;37.00;;;;;8.16;73.84;101202.56;5144131;27;11515;-73
2021/04/04 06:04:27;;;;;;;;;45.75;40.50;;;;;8.17;73.96;101204.19;5146986;27;11508;-72
2021/04/04 06:07:26;;;;;;;;;46.00;40.00;;;;;8.15;74.66;101207.25;5142887;27;11503;-73
2021/04/04 06:10:40;;;;;;;;;41.25;38.50;;;;;8.15;75.18;101204.50;5142293;27;11609;-73
2021/04/04 06:14:19;;;;;;;;;29.00;25.75;;;;;8.12;75.06;101210.59;5142684;27;11609;-76
2021/04/04 06:17:16;;;;;;;;;28.75;28.75;;;;;8.15;73.99;101215.53;5126984;27;11518;-75
2021/04/04 06:20:07;;;;;;;;;19.50;19.50;;;;;8.18;73.30;101217.66;5141737;27;11503;-76
2021/04/04 06:22:50;;;;;;;;;24.75;23.50;;;;;8.22;73.09;101231.66;5125982;27;11683;-75
2021/04/04 06:25:58;;;;;;;;;14.75;14.75;;;;;8.30;73.80;101242.00;5134139;27;11482;-76
2021/04/04 06:29:18;;;;;;;;;20.00;20.00;;;;;8.21;73.30;101250.13;5137731;27;11609;-76
2021/04/04 06:32:12;;;;;;;;;23.25;22.25;;;;;8.25;73.86;101251.16;5143264;27;11482;-75
2021/04/04 06:34:45;;;;;;;;;15.75;15.75;;;;;8.18;72.96;101244.41;5125225;27;11479;-75
2021/04/04 06:38:11;;;;;;;;;20.50;20.50;;;;;8.20;73.04;101253.16;5129997;27;11481;-76
2021/04/04 06:40:58;;;;;;;;;15.75;14.75;;;;;8.12;72.91;101245.59;5149500;27;11491;-76
2021/04/04 06:44:13;;;;;;;;;15.00;15.00;;;;;8.13;73.26;101241.72;5143722;27;11509;-77
2021/04/04 06:47:43;;;;;;;;;12.75;12.75;;;;;8.33;72.50;101241.38;5142253;27;11473;-75
2021/04/04 06:50:49;;;;;;;;;16.00;16.00;;;;;8.02;73.11;101233.63;5123481;27;11498;-75
2021/04/04 06:54:16;;;;;;;;;17.50;17.50;;;;;8.08;72.82;101237.13;5143003;27;11470;-72
2021/04/04 06:56:51;;;;;;;;;17.50;17.50;;;;;8.00;73.25;101235.06;5127866;27;11557;-71
2021/04/04 07:00:00;;;;;;;;;15.00;14.50;;;;;7.96;74.07;101234.81;5143023;27;11468;-71
2021/04/04 07:02:56;;;;;;;;;18.25;17.50;;;;;7.87;73.91;101238.56;5142274;27;11557;-73
2021/04/04 07:06:16;;;;;;;;;16.00;16.00;;;;;8.06;73.43;101226.41;5140629;27;11491;-72
2021/04/04 07:09:35;;;;;;;;;18.00;18.00;;;;;8.06;72.61;101237.44;5134121;27;11499;-73
2021/04/04 07:13:08;;;;;;;;;15.00;15.00;;;;;8.03;73.88;101232.50;5118457;27;12265;-71
2021/04/04 07:16:13;;;;;;;;;19.25;19.25;;;;;7.97;74.15;101230.94;5142716;27;11586;-72
2021/04/04 07:19:45;;;;;;;;;17.75;16.00;;;;;7.83;74.59;101221.03;5144813;27;11570;-71
2021/04/04 07:22:48;;;;;;;;;20.50;20.50;;;;;7.86;75.46;101220.41;5131859;27;11461;-71
2021/04/04 07:25:43;;;;;;;;;14.25;14.25;;;;;7.98;74.46;101221.59;5147307;27;11514;-72
2021/04/04 07:28:44;;;;;;;;;16.50;15.50;;;;;8.10;75.07;101215.59;5131691;27;11473;-73
2021/04/04 07:31:55;;;;;;;;;17.25;17.25;;;;;8.20;75.03;101222.88;5144498;27;11481;-72
2021/04/04 07:35:36;;;;;;;;;16.50;16.50;;;;;7.50;74.85;101221.75;5139651;27;11470;-73
2021/04/04 07:38:36;;;;;;;;;18.50;18.50;;;;;8.02;75.28;101217.09;5119406;27;11515;-71
2021/04/04 07:42:12;;;;;;;;;19.75;19.75;;;;;8.04;74.81;101220.38;5142012;27;11502;-71
2021/04/04 07:45:19;;;;;;;;;21.50;21.50;;;;;8.20;75.46;101218.16;5140655;27;11635;-72
2021/04/04 07:48:36;;;;;;;;;19.00;19.00;;;;;8.25;75.18;101214.53;5130446;27;11563;-71
2021/04/04 07:51:28;;;;;;;;;20.25;19.50;;;;;7.65;74.94;101217.16;5142201;27;11508;-72
2021/04/04 07:54:40;;;;;;;;;15.00;15.00;;;;;8.16;74.25;101219.09;5141536;27;11520;-72
2021/04/04 07:57:27;;;;;;;;;17.25;16.25;;;;;8.24;74.26;101221.16;5148911;27;11487;-72
2021/04/04 08:00:25;;;;;;;;;20.25;19.50;;;;;8.39;75.57;101220.09;5140730;27;11568;-70
2021/04/04 08:03:03;;;;;;;;;14.50;13.75;;;;;8.38;74.10;101215.72;5144395;27;11488;-72
2021/04/04 08:06:04;;;;;;;;;11.00;11.00;;;;;8.51;73.26;101213.00;5146403;27;11509;-72
2021/04/04 08:09:12;;;;;;;;;15.50;15.50;;;;;8.56;73.61;101212.88;5142700;27;11533;-73
2021/04/04 08:12:33;;;;;;;;;28.25;23.00;;;;;8.38;73.89;101211.00;5117187;27;11430;-72
2021/04/04 08:16:06;;;;;;;;;35.50;30.75;;;;;8.56;73.58;101204.59;5130901;27;11525;-72
2021/04/04 08:19:02;;;;;;;;;42.00;33.00;;;;;8.60;74.60;101197.38;5139406;27;12374;-71
2021/04/04 08:21:37;;;;;;;;;26.00;25.00;;;;;8.63;74.52;101199.50;5143101;27;11508;-72
2021/04/04 08:24:32;;;;;;;;;34.75;29.50;;;;;8.79;73.91;101201.97;5144215;27;11494;-71
2021/04/04 08:27:21;;;;;;;;;20.00;18.75;;;;;8.62;72.79;101206.13;5144625;27;12265;-72
2021/04/04 08:29:52;;;;;;;;;30.00;30.00;;;;;8.45;73.83;101203.16;5123117;27;11428;-72
2021/04/04 08:32:52;;;;;;;;;31.75;31.75;;;;;8.66;73.88;101194.50;5141164;27;11466;-72
2021/04/04 08:35:52;;;;;;;;;27.75;25.25;;;;;8.82;74.26;101193.91;5145190;27;11477;-72
2021/04/04 08:38:36;;;;;;;;;33.00;32.25;;;;;8.94;74.84;101192.56;5150882;27;11505;-72
2021/04/04 08:41:07;;;;;;;;;35.75;35.00;;;;;8.80;73.84;101189.78;5144551;27;11481;-72
2021/04/04 08:44:09;;;;;;;;;31.25;30.50;;;;;8.75;72.70;101189.91;5149844;27;11495;-73
2021/04/04 08:47:28;;;;;;;;;21.25;20.75;;;;;8.58;73.71;101187.75;5150402;27;11558;-72
2021/04/04 08:49:59;;;;;;;;;46.75;41.00;;;;;8.71;73.15;101175.91;5149822;27;11594;-72
2021/04/04 08:53:00;;;;;;;;;20.50;20.50;;;;;8.87;73.88;101177.22;5148085;27;11639;-72
2021/04/04 08:55:56;;;;;;;;;19.50;19.50;;;;;9.03;72.67;101183.25;5145121;27;11493;-73
2021/04/04 08:58:57;;;;;;;;;15.50;15.50;;;;;8.78;73.08;101167.22;5150781;27;12250;-73
2021/04/04 09:01:46;;;;;;;;;21.75;21.75;;;;;9.09;73.42;101165.47;5147052;27;11462;-72
2021/04/04 09:04:41;;;;;;;;;15.00;15.00;;;;;9.20;72.87;101163.28;5146719;27;11490;-73
2021/04/04 09:07:54;;;;;;;;;18.00;18.00;;;;;9.43;72.67;101166.91;5147307;27;11417;-73
2021/04/04 09:10:50;;;;;;;;;19.25;18.00;;;;;9.31;72.51;101163.88;5147480;27;11515;-72
2021/04/04 09:13:47;;;;;;;;;18.75;18.00;;;;;9.10;71.84;101161.56;5148067;27;11401;-71
2021/04/04 09:16:54;;;;;;;;;16.75;16.75;;;;;9.17;71.50;101170.25;5145910;27;11442;-71
2021/04/04 09:19:58;;;;;;;;;21.00;21.00;;;;;9.34;71.02;101157.72;5145558;27;11433;-72
2021/04/04 09:22:55;;;;;;;;;25.75;25.75;;;;;9.28;72.17;101156.22;5144489;27;11456;-71
2021/04/04 09:25:53;;;;;;;;;20.75;20.75;;;;;9.35;72.31;101153.84;5131741;27;11421;-72
2021/04/04 09:28:53;;;;;;;;;22.00;22.00;;;;;9.41;70.94;101160.88;5147732;27;11465;-73
2021/04/04 09:31:24;;;;;;;;;22.00;22.00;;;;;9.46;70.38;101167.09;5142476;27;12210;-73
2021/04/04 09:34:17;;;;;;;;;23.50;22.25;;;;;9.40;69.50;101162.00;5145846;27;11443;-73
2021/04/04 09:36:52;;;;;;;;;45.00;40.50;;;;;9.31;70.47;101163.88;5146353;27;11469;-72
2021/04/04 09:39:49;;;;;;;;;39.75;34.50;;;;;9.53;69.94;101152.06;5150415;27;11586;-72
2021/04/04 09:42:47;;;;;;;;;50.75;42.50;;;;;9.49;70.23;101151.84;5145165;27;11586;-71
2021/04/04 09:45:44;;;;;;;;;41.50;38.50;;;;;9.39;71.28;101152.91;5144145;27;12207;-72
2021/04/04 09:48:23;;;;;;;;;36.25;35.75;;;;;9.40;69.44;101145.44;5147074;27;11528;-72
2021/04/04 09:51:19;;;;;;;;;31.75;31.50;;;;;9.57;68.63;101142.00;5137217;27;11475;-73
2021/04/04 09:54:17;;;;;;;;;47.25;39.50;;;;;9.60;69.81;101138.63;5145391;27;11527;-71
2021/04/04 09:57:12;;;;;;;;;21.25;21.25;;;;;9.37;69.17;101133.09;5144045;27;11478;-72
2021/04/04 10:00:16;;;;;;;;;21.25;21.25;;;;;9.46;70.27;101138.69;5144174;27;11438;-72
2021/04/04 10:02:44;;;;;;;;;32.50;32.50;;;;;9.63;69.27;101136.06;5143302;27;11440;-73
2021/04/04 10:05:45;;;;;;;;;34.50;34.25;;;;;9.65;69.56;101135.72;5142470;27;11471;-72
2021/04/04 10:08:13;;;;;;;;;39.25;35.50;;;;;9.85;68.45;101135.22;5128471;27;11509;-72
2021/04/04 10:11:15;;;;;;;;;42.75;36.75;;;;;9.68;68.93;101135.94;5145684;27;11499;-73
2021/04/04 10:14:11;;;;;;;;;40.50;38.25;;;;;9.65;67.78;101136.53;5142756;27;11521;-72
2021/04/04 10:17:08;;;;;;;;;64.00;49.00;;;;;9.45;69.19;101126.84;5144244;27;11495;-72
2021/04/04 10:20:06;;;;;;;;;42.75;39.25;;;;;8.94;69.02;101127.16;5140699;27;11523;-72
2021/04/04 10:23:02;;;;;;;;;39.75;37.75;;;;;9.08;69.00;101118.88;5135733;27;11520;-72
2021/04/04 10:26:04;;;;;;;;;42.25;37.50;;;;;9.18;69.40;101118.63;5145543;27;11477;-70
2021/04/04 10:29:02;;;;;;;;;26.25;26.25;;;;;9.45;68.54;101118.53;5133250;27;11548;-72
2021/04/04 10:31:58;;;;;;;;;40.50;39.00;;;;;9.25;68.85;101120.97;5145652;27;11493;-72
2021/04/04 10:34:53;;;;;;;;;35.50;33.00;;;;;9.45;69.30;101123.25;5145377;27;11536;-72
2021/04/04 10:38:02;;;;;;;;;49.50;43.75;;;;;9.54;68.32;101126.06;5141257;27;11438;-72
2021/04/04 10:40:56;;;;;;;;;65.00;51.00;;;;;9.50;68.22;101125.06;5144433;27;11568;-71
2021/04/04 10:43:52;;;;;;;;;25.25;25.25;;;;;9.30;68.19;101126.38;5142479;27;12242;-72
2021/04/04 10:46:47;;;;;;;;;36.25;33.50;;;;;9.42;68.39;101118.34;5144602;27;11550;-71
2021/04/04 10:49:46;;;;;;;;;36.75;36.50;;;;;9.55;68.01;101111.13;5142715;27;11519;-71
2021/04/04 10:52:44;;;;;;;;;25.00;25.00;;;;;9.79;67.13;101122.69;5145927;27;11498;-71
2021/04/04 10:55:40;;;;;;;;;20.25;20.25;;;;;10.09;66.35;101118.31;5129449;27;11455;-71
2021/04/04 10:58:39;;;;;;;;;17.50;17.00;;;;;10.25;65.09;101118.75;5130657;27;11504;-71
2021/04/04 11:01:35;;;;;;;;;24.25;23.00;;;;;10.28;66.08;101118.13;5142589;27;11440;-71
2021/04/04 11:04:32;;;;;;;;;28.50;24.00;;;;;10.49;64.95;101118.34;5142592;27;11405;-71
2021/04/04 11:07:30;;;;;;;;;18.25;18.25;;;;;10.19;64.58;101119.97;5140788;27;11461;-72
2021/04/04 11:10:25;;;;;;;;;18.75;18.75;;;;;10.22;64.48;101114.66;5144755;27;11434;-71
2021/04/04 11:13:22;;;;;;;;;19.25;19.25;;;;;10.13;64.32;101108.25;5146571;27;11567;-71
2021/04/04 11:16:22;;;;;;;;;17.75;17.75;;;;;10.38;64.83;101100.44;5132092;27;11139;-72
2021/04/04 11:19:21;;;;;;;;;21.50;21.50;;;;;10.48;65.18;101100.13;5144603;27;11434;-71
2021/04/04 11:22:20;;;;;;;;;16.75;16.75;;;;;10.66;64.40;101104.59;5141021;27;11454;-71
2021/04/04 11:25:17;;;;;;;;;21.00;21.00;;;;;10.57;63.67;101106.50;5142292;27;11451;-72
2021/04/04 11:28:18;;;;;;;;;17.25;17.25;;;;;10.52;63.70;101101.94;5143254;27;11196;-72
2021/04/04 11:31:24;;;;;;;;;17.50;17.00;;;;;10.34;62.42;101104.94;5144940;27;11298;-72
2021/04/04 11:34:41;;;;;;;;;15.50;15.50;;;;;10.34;62.20;101091.13;5144087;27;11425;-72
2021/04/04 11:37:41;;;;;;;;;17.25;17.25;;;;;10.17;63.60;101100.13;5142225;27;12224;-72
2021/04/04 11:40:38;;;;;;;;;17.50;17.50;;;;;10.40;61.72;101098.97;5128856;27;11143;-72
2021/04/04 11:43:34;;;;;;;;;20.50;20.50;;;;;10.35;63.86;101099.13;5142324;27;11493;-71
2021/04/04 11:47:03;;;;;;;;;14.75;14.75;;;;;10.32;62.15;101096.97;5141495;27;11334;-73
2021/04/04 11:49:51;;;;;;;;;21.25;20.50;;;;;10.35;63.36;101099.13;5131846;27;11444;-72
2021/04/04 11:52:46;;;;;;;;;19.00;19.00;;;;;10.40;65.14;101096.19;5137456;27;11150;-73
2021/04/04 11:55:47;;;;;;;;;14.00;14.00;;;;;10.41;62.36;101097.00;5134019;27;12028;-72
2021/04/04 11:58:43;;;;;;;;;14.00;14.00;;;;;10.56;63.08;101099.34;5141108;27;10982;-72
2021/04/04 12:01:39;;;;;;;;;19.00;19.00;;;;;10.58;63.16;101102.59;5143815;27;11198;-71
2021/04/04 12:04:42;;;;;;;;;18.50;18.50;;;;;10.56;63.85;101108.44;5128994;27;11490;-72
2021/04/04 12:07:49;;;;;;;;;13.50;13.50;;;;;10.49;63.73;101101.75;5144183;27;11067;-72
2021/04/04 12:10:37;;;;;;;;;18.25;18.25;;;;;10.39;64.63;101100.09;5137972;27;10907;-71
2021/04/04 12:13:35;;;;;;;;;18.00;18.00;;;;;10.27;65.21;101103.47;5128822;27;11167;-71
2021/04/04 12:16:49;;;;;;;;;19.25;19.00;;;;;10.24;64.69;101106.88;5142650;27;11417;-72
2021/04/04 12:19:46;;;;;;;;;19.25;19.25;;;;;10.28;64.90;101110.63;5135954;27;11140;-72
2021/04/04 12:22:45;;;;;;;;;17.00;17.00;;;;;10.28;64.04;101118.13;5142290;27;11446;-71
2021/04/04 12:25:41;;;;;;;;;18.50;18.50;;;;;10.30;64.58;101116.66;5140101;27;11422;-71
2021/04/04 12:28:37;;;;;;;;;19.50;19.00;;;;;10.25;64.40;101121.50;5140906;27;11431;-72
2021/04/04 12:31:42;;;;;;;;;14.00;14.00;;;;;10.19;63.48;101128.25;5145047;27;11428;-72
2021/04/04 12:34:41;;;;;;;;;17.75;17.75;;;;;10.12;63.82;101120.44;5140104;27;11758;-71
2021/04/04 12:37:55;;;;;;;;;17.00;17.00;;;;;10.01;64.08;101124.59;5144015;27;11193;-72
2021/04/04 12:40:52;;;;;;;;;14.25;14.25;;;;;9.85;65.13;101132.47;5140402;27;11225;-72
2021/04/04 12:43:48;;;;;;;;;17.50;17.50;;;;;9.84;64.85;101122.56;5132230;27;12148;-73
2021/04/04 12:46:44;;;;;;;;;14.50;14.50;;;;;9.74;64.72;101123.63;5140628;27;11438;-71
2021/04/04 12:49:42;;;;;;;;;17.00;16.75;;;;;9.84;64.71;101124.50;5135142;27;11522;-73
2021/04/04 12:52:49;;;;;;;;;15.25;15.25;;;;;9.91;64.45;101127.63;5128584;27;11433;-73
2021/04/04 12:55:33;;;;;;;;;17.75;17.75;;;;;9.93;65.28;101125.38;5128035;27;12140;-71
2021/04/04 12:58:36;;;;;;;;;15.50;15.50;;;;;9.94;64.54;101118.72;5140369;27;11432;-71
2021/04/04 13:01:32;;;;;;;;;22.50;21.50;;;;;9.84;65.90;101110.69;5141650;27;11445;-71
2021/04/04 13:04:28;;;;;;;;;23.50;23.00;;;;;9.92;64.83;101107.97;5129417;27;11400;-71
2021/04/04 13:07:26;;;;;;;;;18.50;18.50;;;;;9.85;65.79;101115.09;5141572;27;11566;-71
2021/04/04 13:10:09;;;;;;;;;18.25;18.25;;;;;9.81;65.48;101105.78;5137235;27;11479;-72
2021/04/04 13:13:11;;;;;;;;;17.50;17.50;;;;;9.84;65.53;101107.94;5135622;27;11420;-72
2021/04/04 13:16:04;;;;;;;;;19.25;19.00;;;;;9.94;66.21;101108.47;5140654;27;11433;-72
2021/04/04 13:19:01;;;;;;;;;18.50;18.50;;;;;10.01;65.44;101106.06;5140724;27;11535;-72
2021/04/04 13:21:56;;;;;;;;;17.75;17.75;;;;;9.78;64.74;101106.44;5138970;27;12212;-71
2021/04/04 13:24:56;;;;;;;;;15.50;15.50;;;;;9.90;64.74;101096.44;5145710;27;11546;-72